Time;durP1;ratioP1;P1;durP2;ratioP2;P2;SDS_P1;SDS_P2;PMS_P1;PMS_P2;Temp;Humidity;BMP_temperature;BMP_pressure;BME280_temperature;BME280_humidity;BME280_pressure;Samples;Min_cycle;Max_cycle;Signal;HPM_P1;HPM_P2
2023/01/02 00:01:56;;;;;;;14.90;7.53;;;16.00;74.40;;;;;;10370358;28;20137;-58
2023/01/02 00:06:57;;;;;;;9.82;7.00;;;15.90;74.30;;;;;;10369971;28;20044;-58
2023/01/02 00:11:58;;;;;;;10.93;6.90;;;15.90;74.30;;;;;;10371942;28;20109;-56
2023/01/02 00:16:58;;;;;;;10.43;6.50;;;15.90;74.30;;;;;;10369773;28;20525;-58
2023/01/02 00:21:59;;;;;;;9.43;7.55;;;15.90;74.30;;;;;;10369447;28;20088;-61
2023/01/02 00:27:00;;;;;;;8.07;6.15;;;15.90;74.20;;;;;;10356001;28;20033;-55
2023/01/02 00:32:00;;;;;;;10.73;7.20;;;16.00;74.20;;;;;;10369417;28;20024;-58
2023/01/02 00:37:01;;;;;;;9.88;7.20;;;15.90;74.10;;;;;;10369617;28;20014;-59
2023/01/02 00:42:03;;;;;;;7.95;6.10;;;15.90;74.10;;;;;;10368668;28;20120;-57
2023/01/02 00:47:04;;;;;;;8.77;6.10;;;15.90;74.00;;;;;;10367147;28;20049;-60
2023/01/02 00:52:04;;;;;;;7.97;5.50;;;15.90;74.00;;;;;;10355955;28;20018;-59
2023/01/02 00:57:05;;;;;;;8.23;5.78;;;15.90;74.10;;;;;;10383509;28;20066;-62
2023/01/02 01:02:06;;;;;;;7.97;5.15;;;15.90;74.10;;;;;;10368041;28;20107;-55
2023/01/02 01:07:06;;;;;;;8.80;5.18;;;15.90;74.10;;;;;;10367762;28;20034;-60
2023/01/02 01:12:07;;;;;;;7.03;5.00;;;15.90;74.10;;;;;;10383069;28;20097;-60
2023/01/02 01:17:08;;;;;;;5.78;4.30;;;15.90;74.10;;;;;;10369940;28;20457;-57
2023/01/02 01:22:09;;;;;;;8.02;5.00;;;15.90;74.10;;;;;;10367314;28;20022;-60
2023/01/02 01:27:09;;;;;;;11.95;5.45;;;15.90;74.20;;;;;;10353719;28;20125;-59
2023/01/02 01:32:10;;;;;;;7.28;4.93;;;15.90;74.10;;;;;;10366882;28;20509;-52
2023/01/02 01:37:11;;;;;;;7.75;4.72;;;15.90;74.20;;;;;;10358449;28;20438;-58
2023/01/02 01:42:13;;;;;;;7.20;4.68;;;15.90;74.10;;;;;;10348771;28;20028;-58
2023/01/02 01:47:36;;;;;;;6.35;4.38;;;15.90;74.10;;;;;;10366148;28;20050;-59
2023/01/02 01:52:52;;;;;;;7.20;4.57;;;15.90;74.10;;;;;;10365219;28;20339;-59
2023/01/02 01:58:01;;;;;;;6.38;4.45;;;15.90;74.10;;;;;;10352456;28;20053;-60
2023/01/02 02:03:10;;;;;;;5.83;3.83;;;15.90;74.10;;;;;;10354348;28;20022;-58
2023/01/02 02:08:44;;;;;;;6.22;3.70;;;15.80;74.10;;;;;;10365519;28;20030;-58
2023/01/02 02:13:45;;;;;;;6.78;4.15;;;15.80;74.00;;;;;;10377825;28;20101;-60
2023/01/02 02:19:24;;;;;;;5.32;3.67;;;15.90;74.00;;;;;;10380496;28;20389;-55
2023/01/02 02:24:50;;;;;;;7.32;3.80;;;15.90;74.00;;;;;;10365127;28;20026;-60
2023/01/02 02:30:12;;;;;;;5.47;3.53;;;15.80;73.90;;;;;;10325405;28;20129;-60
2023/01/02 02:35:29;;;;;;;6.28;3.53;;;15.80;74.00;;;;;;10371567;28;20021;-62
2023/01/02 02:41:09;;;;;;;4.47;3.17;;;15.80;74.00;;;;;;10379849;28;20065;-60
2023/01/02 02:46:32;;;;;;;5.72;3.85;;;15.90;74.00;;;;;;10364233;28;20493;-59
2023/01/02 02:51:51;;;;;;;5.28;3.33;;;15.80;74.00;;;;;;10364267;28;20105;-57
2023/01/02 02:56:54;;;;;;;5.43;3.10;;;15.80;74.00;;;;;;10364215;28;20034;-56
2023/01/02 03:01:55;;;;;;;5.18;3.20;;;15.80;73.90;;;;;;10367791;28;20024;-58
2023/01/02 03:07:24;;;;;;;4.35;2.88;;;15.80;74.00;;;;;;10372522;28;20038;-60
2023/01/02 03:13:06;;;;;;;4.82;3.15;;;15.80;73.90;;;;;;10358922;28;20069;-60
2023/01/02 03:18:29;;;;;;;4.35;2.83;;;15.80;74.00;;;;;;10386286;28;20018;-60
2023/01/02 03:23:33;;;;;;;4.10;2.53;;;15.80;74.00;;;;;;10386987;28;20026;-56
2023/01/02 03:28:37;;;;;;;4.95;3.33;;;15.80;73.90;;;;;;10386908;28;20029;-58
2023/01/02 03:33:45;;;;;;;4.65;2.83;;;15.80;73.90;;;;;;10386215;28;20091;-56
2023/01/02 03:39:13;;;;;;;5.93;3.08;;;15.80;73.90;;;;;;10385776;28;20101;-59
2023/01/02 03:44:16;;;;;;;4.18;3.00;;;15.80;73.90;;;;;;10369822;28;20782;-55
2023/01/02 03:49:31;;;;;;;5.13;2.72;;;15.80;74.50;;;;;;10384822;28;20448;-57
2023/01/02 03:54:31;;;;;;;4.57;2.30;;;15.80;73.90;;;;;;10375779;28;20034;-60
2023/01/02 04:00:00;;;;;;;4.13;2.35;;;15.80;73.80;;;;;;10370498;28;20495;-60
2023/01/02 04:05:18;;;;;;;3.88;2.75;;;15.80;74.40;;;;;;10370518;28;20045;-55
2023/01/02 04:10:19;;;;;;;4.60;2.30;;;15.80;73.80;;;;;;10369939;28;20040;-60
2023/01/02 04:15:25;;;;;;;4.55;2.50;;;15.80;73.80;;;;;;10371551;28;20022;-59
2023/01/02 04:20:33;;;;;;;4.40;2.63;;;15.80;73.80;;;;;;10368665;28;20026;-58
2023/01/02 04:25:51;;;;;;;3.13;2.58;;;15.80;73.70;;;;;;10377458;28;20041;-58
2023/01/02 04:31:08;;;;;;;4.05;2.38;;;15.80;73.80;;;;;;10379822;28;20022;-59
2023/01/02 04:36:14;;;;;;;3.90;2.33;;;15.80;73.70;;;;;;10368954;28;20053;-59
2023/01/02 04:41:26;;;;;;;3.67;2.40;;;15.80;73.70;;;;;;10368935;28;20111;-59
2023/01/02 04:46:28;;;;;;;3.75;2.25;;;15.80;73.80;;;;;;10383026;28;20042;-59
2023/01/02 04:51:28;;;;;;;2.90;1.98;;;15.80;73.70;;;;;;10383300;28;20018;-60
2023/01/02 04:56:29;;;;;;;3.28;2.00;;;15.80;73.80;;;;;;10368858;28;20102;-60
2023/01/02 05:01:30;;;;;;;4.53;2.97;;;15.80;73.80;;;;;;10383276;28;20073;-61
2023/01/02 05:06:31;;;;;;;3.80;2.22;;;15.80;73.80;;;;;;10367656;28;20117;-59
2023/01/02 05:11:32;;;;;;;3.08;2.05;;;15.80;73.80;;;;;;10368056;28;20807;-60
2023/01/02 05:16:32;;;;;;;5.03;2.35;;;15.80;73.80;;;;;;10369885;28;20022;-56
2023/01/02 05:26:53;;;;;;;4.78;2.30;;;15.70;73.80;;;;;;10352840;28;20041;-56
2023/01/02 05:31:54;;;;;;;3.78;2.72;;;15.70;73.80;;;;;;10382377;28;20014;-59
2023/01/02 05:36:54;;;;;;;3.50;2.17;;;15.70;73.80;;;;;;10375441;28;20121;-59
2023/01/02 05:41:55;;;;;;;3.00;1.70;;;15.80;73.80;;;;;;10348868;28;20022;-56
2023/01/02 05:46:56;;;;;;;4.65;1.92;;;15.80;73.80;;;;;;10381221;28;20042;-59
2023/01/02 05:51:56;;;;;;;3.92;2.00;;;15.80;73.80;;;;;;10352839;28;20128;-57
2023/01/02 05:56:57;;;;;;;4.30;2.15;;;15.70;73.80;;;;;;10381030;28;20117;-58
2023/01/02 06:01:59;;;;;;;4.10;2.13;;;15.70;73.80;;;;;;10341325;28;20019;-57
2023/01/02 06:06:59;;;;;;;3.20;1.90;;;15.80;73.80;;;;;;10351814;28;20520;-59
2023/01/02 06:12:00;;;;;;;4.18;2.22;;;15.70;73.80;;;;;;10342872;28;20049;-60
2023/01/02 06:17:00;;;;;;;2.75;1.48;;;15.80;73.80;;;;;;10322011;28;21017;-59
2023/01/02 06:22:01;;;;;;;4.18;2.30;;;15.80;73.70;;;;;;10339117;28;20057;-58
2023/01/02 06:27:02;;;;;;;4.40;2.15;;;15.90;74.50;;;;;;10333093;28;20121;-60
2023/01/02 06:32:03;;;;;;;5.68;2.88;;;15.90;75.20;;;;;;10364034;28;20137;-57
2023/01/02 06:37:03;;;;;;;4.22;2.45;;;16.10;75.60;;;;;;10363075;28;20014;-60
2023/01/02 06:42:04;;;;;;;19.70;3.80;;;16.10;73.80;;;;;;10364916;28;20053;-57
2023/01/02 06:47:04;;;;;;;12.13;2.67;;;16.10;75.10;;;;;;10364645;28;20078;-58
2023/01/02 06:52:06;;;;;;;12.07;3.50;;;16.10;74.20;;;;;;10379958;28;20053;-58
2023/01/02 06:57:07;;;;;;;18.60;4.20;;;16.10;74.00;;;;;;10340666;28;20101;-59
2023/01/02 07:02:11;;;;;;;8.35;2.60;;;16.00;74.30;;;;;;10351443;28;20061;-60
2023/01/02 07:07:11;;;;;;;10.18;3.40;;;16.00;74.70;;;;;;10362243;28;20087;-57
2023/01/02 07:12:12;;;;;;;21.13;3.63;;;16.00;74.80;;;;;;10342528;28;20058;-61
2023/01/02 07:17:13;;;;;;;18.30;3.35;;;16.00;75.30;;;;;;10356007;28;20049;-60
2023/01/02 07:22:14;;;;;;;17.90;3.63;;;16.00;75.60;;;;;;10379223;28;20623;-59
2023/01/02 07:27:14;;;;;;;12.45;2.92;;;16.00;75.70;;;;;;10350612;28;20064;-61
2023/01/02 07:32:15;;;;;;;14.60;3.30;;;16.00;75.50;;;;;;10354118;28;20109;-58
2023/01/02 07:37:16;;;;;;;21.33;3.58;;;16.00;75.60;;;;;;10369777;28;20097;-57
2023/01/02 07:42:16;;;;;;;17.58;3.47;;;16.00;76.00;;;;;;10375240;28;20537;-60
2023/01/02 07:47:17;;;;;;;20.15;4.07;;;16.00;76.00;;;;;;10359748;28;20101;-57
2023/01/02 07:52:17;;;;;;;20.02;4.75;;;16.00;75.80;;;;;;10354374;28;20037;-57
2023/01/02 07:57:18;;;;;;;10.18;3.22;;;16.00;76.00;;;;;;10379239;28;20054;-59
2023/01/02 08:02:19;;;;;;;15.20;3.83;;;16.00;75.80;;;;;;10366657;28;20126;-60
2023/01/02 08:07:21;;;;;;;18.48;4.95;;;16.00;76.10;;;;;;10358845;28;20367;-57
2023/01/02 08:12:22;;;;;;;46.38;6.03;;;16.00;76.00;;;;;;10382311;28;20026;-56
2023/01/02 08:17:23;;;;;;;54.65;7.68;;;16.10;76.00;;;;;;10344483;28;20533;-60
2023/01/02 08:22:23;;;;;;;47.13;8.35;;;16.10;76.00;;;;;;10306126;28;20157;-58
2023/01/02 08:27:24;;;;;;;46.40;7.85;;;16.00;76.20;;;;;;10333478;28;20037;-53
2023/01/02 08:32:25;;;;;;;43.78;7.90;;;16.00;76.40;;;;;;10342404;28;20026;-60
2023/01/02 08:37:25;;;;;;;40.65;7.50;;;16.00;76.30;;;;;;10365446;28;20026;-60
2023/01/02 08:42:26;;;;;;;40.38;7.15;;;16.00;76.10;;;;;;10352268;28;20056;-55
2023/01/02 08:47:27;;;;;;;32.95;7.85;;;16.00;76.40;;;;;;10357000;28;20125;-59
2023/01/02 08:52:27;;;;;;;30.00;6.05;;;16.00;76.40;;;;;;10352602;28;20116;-57
2023/01/02 08:57:28;;;;;;;43.03;6.85;;;16.00;76.20;;;;;;10367684;28;20049;-61
2023/01/02 09:02:29;;;;;;;43.15;7.72;;;16.00;76.30;;;;;;10382672;28;20030;-56
2023/01/02 09:07:31;;;;;;;33.45;6.70;;;16.10;76.70;;;;;;10367685;28;20106;-58
2023/01/02 09:12:32;;;;;;;33.50;7.20;;;16.10;76.20;;;;;;10367055;28;20026;-59
2023/01/02 09:17:32;;;;;;;33.80;5.68;;;16.10;76.00;;;;;;10347104;28;20109;-55
2023/01/02 09:22:33;;;;;;;39.08;6.57;;;16.10;76.20;;;;;;10358373;28;20120;-58
2023/01/02 09:27:34;;;;;;;32.88;5.93;;;16.00;76.10;;;;;;10353099;28;20068;-62
2023/01/02 09:32:34;;;;;;;29.45;6.00;;;16.00;76.20;;;;;;10364992;28;20117;-60
2023/01/02 09:37:35;;;;;;;31.67;6.38;;;16.00;76.30;;;;;;10353688;28;20101;-57
2023/01/02 09:42:36;;;;;;;32.25;6.30;;;16.00;76.10;;;;;;10364080;28;20354;-57
2023/01/02 09:47:38;;;;;;;23.73;5.95;;;16.10;76.10;;;;;;10364198;28;20544;-57
2023/01/02 09:52:46;;;;;;;32.80;5.90;;;16.00;76.10;;;;;;10350960;28;20409;-55
2023/01/02 09:58:13;;;;;;;24.55;4.47;;;16.00;76.60;;;;;;10350810;28;20468;-60
2023/01/02 10:03:33;;;;;;;21.20;4.05;;;16.00;75.80;;;;;;10377675;28;20032;-58
2023/01/02 10:08:39;;;;;;;26.40;5.97;;;16.00;75.90;;;;;;10349354;28;20034;-54
2023/01/02 10:13:53;;;;;;;40.83;6.28;;;16.00;75.90;;;;;;10343406;28;20068;-60
2023/01/02 10:18:54;;;;;;;27.85;6.90;;;16.10;76.10;;;;;;10378306;28;20100;-55
2023/01/02 10:24:03;;;;;;;29.00;6.35;;;16.10;75.80;;;;;;10378086;28;20418;-60
2023/01/02 10:29:26;;;;;;;31.98;5.80;;;16.00;76.00;;;;;;10359100;28;20030;-56
2023/01/02 10:34:41;;;;;;;24.90;5.47;;;16.10;76.00;;;;;;10375457;28;20104;-52
2023/01/02 10:39:45;;;;;;;22.40;4.38;;;16.10;76.00;;;;;;10376787;28;20497;-61
2023/01/02 10:44:46;;;;;;;22.83;4.22;;;16.10;75.60;;;;;;10362400;28;20057;-57
2023/01/02 10:49:49;;;;;;;15.93;3.72;;;16.10;75.60;;;;;;10343244;28;20031;-60
2023/01/02 10:54:52;;;;;;;15.75;4.50;;;16.10;75.60;;;;;;10369957;28;20501;-58
2023/01/02 11:00:00;;;;;;;16.30;4.15;;;16.10;75.40;;;;;;10376449;28;20028;-57
2023/01/02 11:05:03;;;;;;;19.77;3.80;;;16.20;75.60;;;;;;10351141;28;20037;-60
2023/01/02 11:10:20;;;;;;;20.90;5.20;;;16.30;76.30;;;;;;10348511;28;20525;-60
2023/01/02 11:15:34;;;;;;;21.83;3.90;;;16.30;76.20;;;;;;10352928;28;20032;-57
2023/01/02 11:20:37;;;;;;;15.20;3.45;;;16.30;76.20;;;;;;10344627;28;20033;-57
2023/01/02 11:25:42;;;;;;;21.95;3.90;;;16.30;76.00;;;;;;10359405;28;20034;-56
2023/01/02 11:30:49;;;;;;;13.68;3.75;;;16.30;76.60;;;;;;10378788;28;20018;-60
2023/01/02 11:36:18;;;;;;;24.95;4.78;;;16.20;75.30;;;;;;10368720;28;20026;-59
2023/01/02 11:47:13;;;;;;;16.88;4.70;;;16.20;76.20;;;;;;10368456;28;20501;-55
2023/01/02 11:52:29;;;;;;;26.25;5.00;;;16.20;75.90;;;;;;10353224;28;20069;-59
2023/01/02 11:57:45;;;;;;;23.33;4.47;;;16.20;76.10;;;;;;10365250;28;20041;-57
2023/01/02 12:02:50;;;;;;;16.73;4.40;;;16.20;76.00;;;;;;10382526;28;20026;-59
2023/01/02 12:08:03;;;;;;;17.42;4.07;;;16.20;76.70;;;;;;10366794;28;20030;-59
2023/01/02 12:13:50;;;;;;;18.10;2.80;;;16.30;76.40;;;;;;10382864;28;20018;-59
2023/01/02 12:19:19;;;;;;;16.23;3.75;;;16.30;76.70;;;;;;10347698;28;20022;-61
2023/01/02 12:25:07;;;;;;;15.30;3.57;;;16.40;78.70;;;;;;10380690;28;20026;-53
2023/01/02 12:30:19;;;;;;;11.90;3.65;;;16.50;79.40;;;;;;10347222;28;20037;-57
2023/01/02 12:35:52;;;;;;;17.95;4.00;;;16.40;76.70;;;;;;10367345;28;20018;-57
2023/01/02 12:41:04;;;;;;;11.73;3.30;;;16.30;76.80;;;;;;10368909;28;20034;-60
2023/01/02 12:47:02;;;;;;;12.75;2.83;;;16.20;78.70;;;;;;10367751;28;20090;-60
2023/01/02 12:52:27;;;;;;;15.07;3.20;;;16.20;77.10;;;;;;10315663;28;20398;-59
2023/01/02 12:57:39;;;;;;;12.73;2.97;;;16.20;76.80;;;;;;10366158;28;20033;-59
2023/01/02 13:03:33;;;;;;;15.13;3.63;;;16.20;76.70;;;;;;10365964;28;20109;-57
2023/01/02 13:09:20;;;;;;;11.70;3.75;;;16.10;76.70;;;;;;10365464;28;20477;-57
2023/01/02 13:14:35;;;;;;;6.57;2.80;;;16.10;76.90;;;;;;10349325;28;20131;-60
2023/01/02 13:20:06;;;;;;;9.35;2.45;;;16.00;76.80;;;;;;10380189;28;20084;-59
2023/01/02 13:25:18;;;;;;;7.50;1.88;;;16.00;76.80;;;;;;10377251;28;20069;-57
2023/01/02 13:30:36;;;;;;;8.70;2.53;;;16.00;76.80;;;;;;10371557;28;20030;-59
2023/01/02 13:35:38;;;;;;;6.03;2.13;;;16.00;76.70;;;;;;10364869;28;20080;-59
2023/01/02 13:40:38;;;;;;;14.48;2.25;;;16.00;76.70;;;;;;10364725;28;20030;-60
2023/01/02 13:45:48;;;;;;;6.43;1.98;;;16.00;76.70;;;;;;10378938;28;20042;-57
2023/01/02 13:51:36;;;;;;;6.07;2.28;;;16.00;76.80;;;;;;10365766;28;20018;-59
2023/01/02 13:57:29;;;;;;;5.30;2.30;;;16.00;76.70;;;;;;10371988;28;20093;-58
2023/01/02 14:02:29;;;;;;;5.85;1.75;;;15.90;76.50;;;;;;10363567;28;20101;-59
2023/01/02 14:07:31;;;;;;;6.47;1.90;;;15.90;76.50;;;;;;10378596;28;20026;-60
2023/01/02 14:13:04;;;;;;;5.35;1.27;;;15.90;76.50;;;;;;10378510;28;20496;-60
2023/01/02 14:18:09;;;;;;;7.50;1.65;;;15.90;76.50;;;;;;10378290;28;20104;-58
2023/01/02 14:23:38;;;;;;;5.80;1.80;;;15.90;76.40;;;;;;10378592;28;20670;-55
2023/01/02 14:28:39;;;;;;;7.57;2.17;;;15.90;76.40;;;;;;10342659;28;20073;-59
2023/01/02 14:33:40;;;;;;;3.90;1.90;;;15.90;76.40;;;;;;10362737;28;20041;-52
2023/01/02 14:38:51;;;;;;;5.82;2.00;;;15.90;76.30;;;;;;10378103;28;20029;-60
2023/01/02 14:43:52;;;;;;;5.65;2.20;;;15.90;76.30;;;;;;10376449;28;20030;-58
2023/01/02 14:49:10;;;;;;;3.50;1.38;;;15.90;76.20;;;;;;10377332;28;20038;-59
2023/01/02 14:54:27;;;;;;;3.17;1.60;;;15.90;76.20;;;;;;10352146;28;20417;-60
2023/01/02 14:59:37;;;;;;;4.88;1.77;;;15.80;76.20;;;;;;10362550;28;20030;-60
2023/01/02 15:04:45;;;;;;;4.22;1.33;;;15.80;76.10;;;;;;10376734;28;20032;-59
2023/01/02 15:09:52;;;;;;;5.10;1.77;;;15.80;76.10;;;;;;10377120;28;20034;-54
2023/01/02 15:14:53;;;;;;;2.97;1.48;;;15.80;76.10;;;;;;10362070;28;20022;-58
2023/01/02 15:19:58;;;;;;;3.78;1.95;;;15.80;76.00;;;;;;10336032;28;20672;-58
2023/01/02 15:24:58;;;;;;;8.32;1.92;;;15.90;76.00;;;;;;10360612;28;20034;-55
2023/01/02 15:30:16;;;;;;;7.53;1.67;;;15.90;75.90;;;;;;10352377;28;20068;-60
2023/01/02 15:35:27;;;;;;;5.95;2.13;;;15.80;75.90;;;;;;10364070;28;20022;-60
2023/01/02 15:40:33;;;;;;;6.82;2.42;;;15.90;75.90;;;;;;10363112;28;20022;-59
2023/01/02 15:45:36;;;;;;;9.48;1.88;;;15.90;76.70;;;;;;10362909;28;20045;-60
2023/01/02 15:50:38;;;;;;;6.97;1.40;;;16.10;76.50;;;;;;10336386;28;20049;-58
2023/01/02 15:55:40;;;;;;;8.18;1.95;;;16.10;76.40;;;;;;10341878;28;20533;-57
2023/01/02 16:00:43;;;;;;;7.30;1.90;;;16.10;76.20;;;;;;10348140;28;20031;-57
2023/01/02 16:05:48;;;;;;;14.55;3.42;;;16.00;75.60;;;;;;10375838;28;20036;-57
2023/01/02 16:10:59;;;;;;;26.90;3.85;;;16.00;76.30;;;;;;10345010;28;20017;-61
2023/01/02 16:16:01;;;;;;;16.02;2.78;;;16.00;76.60;;;;;;10317222;28;20025;-58
2023/01/02 16:21:02;;;;;;;13.35;2.97;;;15.90;76.50;;;;;;10330524;28;20387;-59
2023/01/02 16:26:05;;;;;;;13.93;3.08;;;16.00;76.50;;;;;;10326432;28;20038;-57
2023/01/02 16:31:15;;;;;;;13.25;3.03;;;15.90;76.70;;;;;;10317016;28;20015;-56
2023/01/02 16:36:15;;;;;;;14.82;2.38;;;15.90;75.80;;;;;;10321258;28;20446;-59
2023/01/02 16:41:33;;;;;;;11.00;2.00;;;15.90;75.30;;;;;;10312635;28;20110;-55
2023/01/02 16:46:34;;;;;;;18.23;10.00;;;15.90;74.80;;;;;;10316540;28;20096;-60
2023/01/02 16:51:35;;;;;;;14.65;7.15;;;16.00;80.20;;;;;;10335692;28;20101;-55
2023/01/02 16:56:36;;;;;;;17.52;6.38;;;16.30;80.80;;;;;;10362654;28;20032;-62
2023/01/02 17:01:36;;;;;;;13.95;5.85;;;16.40;79.70;;;;;;10368627;28;20072;-56
2023/01/02 17:06:37;;;;;;;11.38;5.55;;;16.50;78.90;;;;;;10352378;28;20061;-59
2023/01/02 17:11:58;;;;;;;10.35;4.60;;;16.50;78.70;;;;;;10366001;28;20141;-59
2023/01/02 17:16:59;;;;;;;14.07;4.97;;;16.40;78.00;;;;;;10354222;28;20076;-56
2023/01/02 17:22:00;;;;;;;12.90;5.15;;;16.40;78.10;;;;;;10354304;28;20125;-57
2023/01/02 17:27:01;;;;;;;18.35;4.10;;;16.40;77.40;;;;;;10360750;28;20525;-56
2023/01/02 17:32:03;;;;;;;11.70;4.75;;;16.30;76.50;;;;;;10361052;28;20114;-57
2023/01/02 17:37:04;;;;;;;13.43;5.47;;;16.30;77.30;;;;;;10342443;28;20064;-57
2023/01/02 17:42:05;;;;;;;9.98;5.18;;;16.20;77.50;;;;;;10366220;28;20028;-59
2023/01/02 17:47:05;;;;;;;19.15;4.28;;;16.20;77.60;;;;;;10361558;28;20516;-59
2023/01/02 17:52:06;;;;;;;17.65;4.40;;;16.20;77.50;;;;;;10354202;28;20109;-60
2023/01/02 17:57:09;;;;;;;16.30;4.18;;;16.20;77.60;;;;;;10366349;28;20150;-59
2023/01/02 18:02:18;;;;;;;14.02;4.30;;;16.20;77.50;;;;;;10361120;28;20037;-59
2023/01/02 18:07:19;;;;;;;11.90;4.20;;;16.20;77.60;;;;;;10368614;28;20416;-55
2023/01/02 18:12:20;;;;;;;13.23;3.83;;;16.20;77.70;;;;;;10368267;28;20014;-59
2023/01/02 18:17:22;;;;;;;10.13;4.32;;;16.20;77.80;;;;;;10356876;28;20032;-59
2023/01/02 18:22:29;;;;;;;14.88;4.28;;;16.20;77.90;;;;;;10364805;28;20597;-60
2023/01/02 18:27:32;;;;;;;10.18;3.38;;;16.10;77.90;;;;;;10334791;28;20080;-57
2023/01/02 18:32:36;;;;;;;8.52;3.47;;;16.10;77.40;;;;;;10316558;28;20047;-59
2023/01/02 18:37:39;;;;;;;11.63;4.32;;;16.00;77.40;;;;;;10348215;28;20052;-59
2023/01/02 18:42:41;;;;;;;8.57;3.70;;;15.90;77.50;;;;;;10347730;28;20031;-59
2023/01/02 18:47:44;;;;;;;10.98;3.67;;;15.90;77.60;;;;;;10344005;28;20034;-60
2023/01/02 18:52:46;;;;;;;5.88;3.28;;;15.90;77.60;;;;;;10347496;28;20041;-54
2023/01/02 18:57:54;;;;;;;8.48;3.60;;;15.90;77.70;;;;;;10363092;28;20458;-59
2023/01/02 19:03:05;;;;;;;9.07;3.33;;;15.90;77.20;;;;;;10338666;28;20029;-59
2023/01/02 19:08:23;;;;;;;6.45;3.58;;;15.90;77.10;;;;;;10350083;28;20030;-59
2023/01/02 19:13:30;;;;;;;7.70;2.75;;;15.90;77.10;;;;;;10358731;28;20031;-59
2023/01/02 19:18:41;;;;;;;9.68;3.28;;;15.80;77.00;;;;;;10359243;28;20019;-59
2023/01/02 19:23:57;;;;;;;12.48;3.35;;;15.80;76.90;;;;;;10366246;28;20019;-60
2023/01/02 19:29:23;;;;;;;7.47;3.28;;;15.80;77.20;;;;;;10336689;28;20374;-58
2023/01/02 19:34:51;;;;;;;6.30;2.67;;;15.80;76.80;;;;;;10336763;28;20084;-56
2023/01/02 19:39:56;;;;;;;4.97;2.70;;;15.80;76.60;;;;;;10347951;28;20386;-58
2023/01/02 19:45:03;;;;;;;12.90;3.55;;;15.80;76.60;;;;;;10364901;28;20731;-59
2023/01/02 19:50:08;;;;;;;9.90;3.30;;;15.80;76.60;;;;;;10378325;28;20029;-58
2023/01/02 19:55:11;;;;;;;8.45;2.30;;;15.70;76.90;;;;;;10363967;28;20076;-58
2023/01/02 20:00:14;;;;;;;4.88;2.67;;;15.70;76.50;;;;;;10382183;28;20045;-60
2023/01/02 20:05:19;;;;;;;6.55;2.97;;;15.70;76.40;;;;;;10346142;28;20030;-58
2023/01/02 20:10:21;;;;;;;5.28;2.85;;;15.70;76.50;;;;;;10354338;28;20116;-59
2023/01/02 20:15:24;;;;;;;6.40;5.50;;;15.70;76.70;;;;;;10357880;28;20024;-60
2023/01/02 20:20:28;;;;;;;6.18;4.07;;;15.80;77.80;;;;;;10385056;28;20030;-56
2023/01/02 20:25:28;;;;;;;10.00;6.38;;;15.80;76.90;;;;;;10349796;28;20046;-60
2023/01/02 20:30:29;;;;;;;8.43;6.97;;;15.80;76.80;;;;;;10351823;28;20157;-57
2023/01/02 20:35:30;;;;;;;8.15;7.35;;;15.70;76.90;;;;;;10329977;28;20193;-57
2023/01/02 20:40:30;;;;;;;8.40;7.53;;;15.80;76.80;;;;;;10334585;28;20513;-60
2023/01/02 20:45:31;;;;;;;9.10;7.15;;;15.70;76.60;;;;;;10328858;28;20053;-56
2023/01/02 20:50:32;;;;;;;10.02;7.70;;;15.70;76.60;;;;;;10346184;28;20118;-58
2023/01/02 20:55:33;;;;;;;9.93;8.93;;;15.70;76.50;;;;;;10339735;28;20165;-56
2023/01/02 21:00:33;;;;;;;9.23;8.32;;;15.70;76.40;;;;;;10331616;28;20538;-60
2023/01/02 21:05:35;;;;;;;7.93;7.13;;;15.70;76.30;;;;;;10356088;28;20032;-60
2023/01/02 21:10:36;;;;;;;8.95;8.05;;;15.70;76.30;;;;;;10367767;28;20022;-58
2023/01/02 21:15:45;;;;;;;9.30;8.00;;;15.70;76.30;;;;;;10382651;28;20065;-60
2023/01/02 21:20:51;;;;;;;9.02;8.07;;;15.70;76.20;;;;;;10382006;28;20018;-59
2023/01/02 21:25:52;;;;;;;8.18;7.35;;;15.70;76.20;;;;;;10373286;28;20126;-60
2023/01/02 21:30:53;;;;;;;8.98;8.07;;;15.60;76.20;;;;;;10378281;28;20116;-60
2023/01/02 21:35:57;;;;;;;11.40;9.55;;;15.60;76.20;;;;;;10366958;28;20426;-61
2023/01/02 21:42:14;;;;;;;8.85;8.02;;;15.60;76.20;;;;;;10353750;28;20522;-61
2023/01/02 21:46:19;;;;;;;8.70;7.90;;;15.60;76.20;;;;;;10378923;28;20038;-60
2023/01/02 21:51:19;;;;;;;9.45;8.10;;;15.60;76.00;;;;;;10368784;28;20030;-60
2023/01/02 21:56:20;;;;;;;9.80;8.82;;;15.60;76.00;;;;;;10366252;28;20501;-58
2023/01/02 22:01:21;;;;;;;8.85;8.00;;;15.70;75.90;;;;;;10365943;28;20050;-58
2023/01/02 22:06:22;;;;;;;8.15;7.45;;;15.60;75.90;;;;;;10380624;28;20030;-59
2023/01/02 22:16:42;;;;;;;9.13;8.20;;;15.70;75.70;;;;;;10365938;28;20038;-59
2023/01/02 22:21:43;;;;;;;8.52;7.72;;;15.70;75.70;;;;;;10380162;28;20085;-60
2023/01/02 22:26:46;;;;;;;8.55;7.85;;;15.70;75.60;;;;;;10351715;28;20121;-60
2023/01/02 22:31:48;;;;;;;8.90;8.05;;;15.70;75.80;;;;;;10366934;28;20032;-63
2023/01/02 22:36:49;;;;;;;8.50;7.80;;;15.70;75.70;;;;;;10366906;28;20024;-60
2023/01/02 22:42:52;;;;;;;8.38;7.13;;;15.60;75.60;;;;;;10364900;28;20100;-60
2023/01/02 22:47:24;;;;;;;7.35;6.65;;;15.60;75.70;;;;;;10363643;28;20042;-60
2023/01/02 22:52:26;;;;;;;7.90;7.10;;;15.60;75.70;;;;;;10379366;28;20029;-57
2023/01/02 22:57:27;;;;;;;8.52;7.63;;;15.60;75.60;;;;;;10363000;28;20032;-59
2023/01/02 23:02:28;;;;;;;7.43;6.68;;;15.60;75.40;;;;;;10364624;28;20037;-57
2023/01/02 23:07:28;;;;;;;7.75;6.80;;;15.60;75.40;;;;;;10364319;28;20565;-60
2023/01/02 23:12:29;;;;;;;7.10;6.50;;;15.70;75.40;;;;;;10379387;28;20156;-60
2023/01/02 23:22:50;;;;;;;7.83;6.70;;;15.60;75.40;;;;;;10385252;28;20382;-59
2023/01/02 23:27:51;;;;;;;7.45;6.75;;;15.60;75.40;;;;;;10373928;28;20037;-59
2023/01/02 23:32:51;;;;;;;7.05;6.38;;;15.60;75.40;;;;;;10360875;28;20075;-58
2023/01/02 23:37:52;;;;;;;8.13;5.78;;;15.60;75.40;;;;;;10370444;28;20410;-59
2023/01/02 23:42:53;;;;;;;6.38;5.50;;;15.60;75.40;;;;;;10371909;28;20482;-60
2023/01/02 23:47:53;;;;;;;5.63;5.13;;;15.70;75.30;;;;;;10386401;28;20058;-61
2023/01/02 23:52:54;;;;;;;5.63;5.05;;;15.60;75.20;;;;;;10358756;28;20109;-60
2023/01/02 23:57:54;;;;;;;5.70;4.63;;;15.60;75.20;;;;;;10357776;28;20277;-59
